地図

経路データ

SID SEASON NUMBER BASIN SUBBASIN NAME ISO_TIME NATURE LAT LON WMO_WIND WMO_PRES WMO_AGENCY TRACK_TYPE DIST2LAND LANDFALL IFLAG USA_AGENCY USA_ATCF_ID USA_LAT USA_LON USA_RECORD USA_STATUS USA_WIND USA_PRES USA_SSHS USA_R34_NE USA_R34_SE USA_R34_SW USA_R34_NW USA_R50_NE USA_R50_SE USA_R50_SW USA_R50_NW USA_R64_NE USA_R64_SE USA_R64_SW USA_R64_NW USA_POCI USA_ROCI USA_RMW USA_EYE TOKYO_LAT TOKYO_LON TOKYO_GRADE TOKYO_WIND TOKYO_PRES TOKYO_R50_DIR TOKYO_R50_LONG TOKYO_R50_SHORT TOKYO_R30_DIR TOKYO_R30_LONG TOKYO_R30_SHORT TOKYO_LAND CMA_LAT CMA_LON CMA_CAT CMA_WIND CMA_PRES HKO_LAT HKO_LON HKO_CAT HKO_WIND HKO_PRES NEWDELHI_LAT NEWDELHI_LON NEWDELHI_GRADE NEWDELHI_WIND NEWDELHI_PRES NEWDELHI_CI NEWDELHI_DP NEWDELHI_POCI REUNION_LAT REUNION_LON REUNION_TYPE REUNION_WIND REUNION_PRES REUNION_TNUM REUNION_CI REUNION_RMW REUNION_R34_NE REUNION_R34_SE REUNION_R34_SW REUNION_R34_NW REUNION_R50_NE REUNION_R50_SE REUNION_R50_SW REUNION_R50_NW REUNION_R64_NE REUNION_R64_SE REUNION_R64_SW REUNION_R64_NW BOM_LAT BOM_LON BOM_TYPE BOM_WIND BOM_PRES BOM_TNUM BOM_CI BOM_RMW BOM_R34_NE BOM_R34_SE BOM_R34_SW BOM_R34_NW BOM_R50_NE BOM_R50_SE BOM_R50_SW BOM_R50_NW BOM_R64_NE BOM_R64_SE BOM_R64_SW BOM_R64_NW BOM_ROCI BOM_POCI BOM_EYE BOM_POS_METHOD BOM_PRES_METHOD NADI_LAT NADI_LON NADI_CAT NADI_WIND NADI_PRES WELLINGTON_LAT WELLINGTON_LON WELLINGTON_WIND WELLINGTON_PRES DS824_LAT DS824_LON DS824_STAGE DS824_WIND DS824_PRES TD9636_LAT TD9636_LON TD9636_STAGE TD9636_WIND TD9636_PRES TD9635_LAT TD9635_LON TD9635_WIND TD9635_PRES TD9635_ROCI NEUMANN_LAT NEUMANN_LON NEUMANN_CLASS NEUMANN_WIND NEUMANN_PRES MLC_LAT MLC_LON MLC_CLASS MLC_WIND MLC_PRES USA_GUST BOM_GUST BOM_GUST_PER REUNION_GUST REUNION_GUST_PER USA_SEAHGT USA_SEARAD_NE USA_SEARAD_SE USA_SEARAD_SW USA_SEARAD_NW STORM_SPEED STORM_DIR
1925310N08084 1925 56 NI BB NOT_NAMED 1925-11-06 00:00:00 TS 7.70000 83.6000 main 198 187 _________O____ -1 7.70000 83.6000 TC 30 3 258
1925310N08084 1925 56 NI BB NOT_NAMED 1925-11-06 03:00:00 TS 7.66668 83.4400 main 176 154 _________PO___ -1 7.65002 83.3600 TC 30 7.70000 83.6000 1 4 259
1925310N08084 1925 56 NI BB NOT_NAMED 1925-11-06 06:00:00 TS 7.61942 83.1925 main 154 121 _________OP___ -1 7.60000 83.1000 TC 30 7.64855 83.3312 1 5 260
1925310N08084 1925 56 NI BB NOT_NAMED 1925-11-06 09:00:00 TS 7.57040 82.9157 main 121 99 _________PP___ -1 7.54999 82.8075 TC 30 7.59761 83.0599 1 6 260
1925310N08084 1925 56 NI BB NOT_NAMED 1925-11-06 12:00:00 TS 7.52394 82.6419 main 88 66 _________OP___ -1 7.50000 82.5000 TC 30 7.54787 82.7837 1 6 260
1925310N08084 1925 56 NI BB NOT_NAMED 1925-11-06 15:00:00 TS 7.47499 82.3500 main 66 33 _________PO___ -1 7.44998 82.2000 TC 30 7.50000 82.5000 1 6 261
1925310N08084 1925 56 NI BB NOT_NAMED 1925-11-06 18:00:00 TS 7.42701 82.0536 main 33 0 _________OP___ -1 7.40000 81.9000 TC 30 7.45402 82.2072 1 6 261
1925310N08084 1925 56 NI BB NOT_NAMED 1925-11-06 21:00:00 TS 7.37871 81.7538 main 0 0 _________PP___ -1 7.34998 81.6000 TC 30 7.40745 81.9075 1 6 261
1925310N08084 1925 56 NI BB NOT_NAMED 1925-11-07 00:00:00 TS 7.32857 81.4521 main 0 0 _________OP___ -1 7.30000 81.3000 TC 30 7.35715 81.6041 1 6 261
1925310N08084 1925 56 NI BB NOT_NAMED 1925-11-07 03:00:00 TS 7.27874 81.1500 main 0 0 _________PO___ -1 7.25748 81.0000 TC 30 7.30000 81.3000 1 6 259
1925310N08084 1925 56 NI BB NOT_NAMED 1925-11-07 06:00:00 TS 7.21403 80.8500 main 0 0 _________OP___ -1 7.20000 80.7000 TC 30 7.22807 81.0000 1 6 255
1925310N08084 1925 56 NI BB NOT_NAMED 1925-11-07 09:00:00 TS 7.12495 80.5500 main 0 0 _________PP___ -1 7.09998 80.4000 TC 30 7.14992 80.7000 1 6 253
1925310N08084 1925 56 NI BB NOT_NAMED 1925-11-07 12:00:00 TS 7.03591 80.2500 main 0 0 _________OP___ -1 7.00000 80.1000 TC 30 7.07182 80.4000 1 6 256
1925310N08084 1925 56 NI BB NOT_NAMED 1925-11-07 15:00:00 TS 6.97124 79.9500 main 0 0 _________PO___ -1 6.94248 79.8000 TC 31 7.00000 80.1000 1 6 258
1925310N08084 1925 56 NI BB NOT_NAMED 1925-11-07 18:00:00 TS 6.91119 79.6561 main 22 22 _________OP___ -1 6.90000 79.5000 TC 32 6.92239 79.8121 1 6 258
1925310N08084 1925 56 NI BB NOT_NAMED 1925-11-07 21:00:00 TS 6.84489 79.3687 main 55 55 _________PP___ -1 6.83495 79.2150 TC 33 6.85484 79.5224 1 6 260
1925310N08084 1925 56 NI BB NOT_NAMED 1925-11-08 00:00:00 TS 6.80494 79.0607 main 88 88 _________OP___ -1 6.80000 78.9000 TC 34 6.80987 79.2215 1 7 267
1925310N08084 1925 56 NI BB NOT_NAMED 1925-11-08 03:00:00 TS 6.81376 78.7038 main 132 132 _________PO___ -1 6.82752 78.5075 TC 36 6.80000 78.9000 2 7 274
1925310N08084 1925 56 NI BB NOT_NAMED 1925-11-08 06:00:00 TS 6.86141 78.3213 main 159 145 _________OP___ -1 6.90000 78.1000 TC 39 6.82282 78.5425 2 8 279
1925310N08084 1925 56 NI AS NOT_NAMED 1925-11-08 09:00:00 TS 6.93374 77.9537 main 145 123 _________PP___ -1 6.98496 77.7425 TC 42 6.88252 78.1650 2 7 284
1925310N08084 1925 56 NI AS NOT_NAMED 1925-11-08 12:00:00 TS 7.03797 77.5900 main 123 100 _________OP___ -1 7.10000 77.4000 TC 45 6.97594 77.7800 2 8 288
1925310N08084 1925 56 NI AS NOT_NAMED 1925-11-08 15:00:00 TS 7.16749 77.2250 main 101 95 _________PO___ -1 7.23497 77.0500 TC 49 7.10000 77.4000 3 8 291
1925310N08084 1925 56 NI AS NOT_NAMED 1925-11-08 18:00:00 TS 7.31705 76.8552 main 99 95 _________OP___ -1 7.40000 76.7000 TC 54 7.23410 77.0104 3 8 294
1925310N08084 1925 56 NI AS NOT_NAMED 1925-11-08 21:00:00 TS 7.49130 76.4801 main 110 110 _________PP___ -1 7.58502 76.3275 TC 59 7.39758 76.6326 3 8 298
1925310N08084 1925 56 NI AS NOT_NAMED 1925-11-09 00:00:00 TS 7.69363 76.1443 main 125 117 _________OP___ -1 7.80000 76.0000 TC 64 7.58726 76.2885 3 7 306
1925310N08084 1925 56 NI AS NOT_NAMED 1925-11-09 03:00:00 TS 7.92123 75.8812 main 125 117 _________PO___ -1 8.04247 75.7625 TC 64 7.80000 76.0000 4 7 316
1925310N08084 1925 56 NI AS NOT_NAMED 1925-11-09 06:00:00 TS 8.16009 75.6861 main 117 113 _________OP___ -1 8.30000 75.6000 TC 64 8.02018 75.7721 4 6 325
1925310N08084 1925 56 NI AS NOT_NAMED 1925-11-09 09:00:00 TS 8.40242 75.5400 main 123 115 _________PP___ -1 8.54249 75.4775 TC 64 8.26234 75.6025 4 6 334
1925310N08084 1925 56 NI AS NOT_NAMED 1925-11-09 12:00:00 TS 8.66167 75.4408 main 123 113 _________OP___ -1 8.80000 75.4000 TC 64 8.52335 75.4816 4 6 342
1925310N08084 1925 56 NI AS NOT_NAMED 1925-11-09 15:00:00 TS 8.94625 75.3675 main 113 108 _________PO___ -1 9.09250 75.3350 TC 64 8.80000 75.4000 4 6 349
1925310N08084 1925 56 NI AS NOT_NAMED 1925-11-09 18:00:00 TS 9.22235 75.3279 main 112 109 _________OP___ -1 9.40000 75.3000 TC 64 9.08911 75.3487 4 6 354
1925310N08084 1925 56 NI AS NOT_NAMED 1925-11-09 21:00:00 TS 9.51353 75.3090 main 109 101 _________PP___ -1 9.70250 75.2925 TC 64 9.38755 75.3200 4 6 0
1925310N08084 1925 56 NI AS NOT_NAMED 1925-11-10 00:00:00 TS 9.79482 75.3042 main 101 98 _________OP___ -1 10.0000 75.3000 TC 64 9.69222 75.3062 4 5 0
1925310N08084 1925 56 NI AS NOT_NAMED 1925-11-10 03:00:00 NR 10.0000 75.3000 main 98 __________O___ -1 TC 10.0000 75.3000 4 4 356

IBTrACS Databaseについて

本データベースは、米国NOAAが公開する1842年以降の世界の熱帯低気圧のベストトラックデータアーカイブInternational Best Track Archive for Climate Stewardship (IBTrACS)を、ウェブで閲覧しやすい形式に変換したものです。

最終更新日:2021-12-03